sensor_id;sensor_type;location;lat;lon;timestamp;P1;durP1;ratioP1;P2;durP2;ratioP2
7047;SDS011;3565;53.254;10.352;2022-07-29T00:02:23;3.17;;;2.20;;
7047;SDS011;3565;53.254;10.352;2022-07-29T00:04:52;3.93;;;2.20;;
7047;SDS011;3565;53.254;10.352;2022-07-29T00:07:24;3.33;;;2.30;;
7047;SDS011;3565;53.254;10.352;2022-07-29T00:09:54;4.37;;;2.07;;
7047;SDS011;3565;53.254;10.352;2022-07-29T00:12:22;3.70;;;2.03;;
7047;SDS011;3565;53.254;10.352;2022-07-29T00:14:54;2.87;;;2.20;;
7047;SDS011;3565;53.254;10.352;2022-07-29T00:17:24;2.40;;;2.20;;
7047;SDS011;3565;53.254;10.352;2022-07-29T00:19:54;3.20;;;2.47;;
7047;SDS011;3565;53.254;10.352;2022-07-29T00:22:23;3.77;;;2.10;;
7047;SDS011;3565;53.254;10.352;2022-07-29T00:25:08;3.73;;;2.33;;
7047;SDS011;3565;53.254;10.352;2022-07-29T00:27:40;3.43;;;2.20;;
7047;SDS011;3565;53.254;10.352;2022-07-29T00:32:58;4.50;;;2.20;;
7047;SDS011;3565;53.254;10.352;2022-07-29T00:35:26;3.20;;;2.07;;
7047;SDS011;3565;53.254;10.352;2022-07-29T00:38:11;2.90;;;2.20;;
7047;SDS011;3565;53.254;10.352;2022-07-29T00:40:40;2.50;;;2.10;;
7047;SDS011;3565;53.254;10.352;2022-07-29T00:43:11;3.03;;;2.03;;
7047;SDS011;3565;53.254;10.352;2022-07-29T00:45:41;4.37;;;2.30;;
7047;SDS011;3565;53.254;10.352;2022-07-29T00:48:11;4.20;;;2.27;;
7047;SDS011;3565;53.254;10.352;2022-07-29T00:50:41;2.70;;;2.27;;
7047;SDS011;3565;53.254;10.352;2022-07-29T00:53:09;3.90;;;2.30;;
7047;SDS011;3565;53.254;10.352;2022-07-29T00:55:38;3.87;;;2.53;;
7047;SDS011;3565;53.254;10.352;2022-07-29T00:58:08;3.70;;;2.40;;
7047;SDS011;3565;53.254;10.352;2022-07-29T01:00:36;3.47;;;2.43;;
7047;SDS011;3565;53.254;10.352;2022-07-29T01:03:07;4.67;;;2.90;;
7047;SDS011;3565;53.254;10.352;2022-07-29T01:05:35;4.73;;;2.60;;
7047;SDS011;3565;53.254;10.352;2022-07-29T01:08:05;5.03;;;2.60;;
7047;SDS011;3565;53.254;10.352;2022-07-29T01:10:34;4.13;;;2.80;;
7047;SDS011;3565;53.254;10.352;2022-07-29T01:13:03;5.30;;;2.60;;
7047;SDS011;3565;53.254;10.352;2022-07-29T01:15:37;4.43;;;2.77;;
7047;SDS011;3565;53.254;10.352;2022-07-29T01:18:12;3.40;;;2.57;;
7047;SDS011;3565;53.254;10.352;2022-07-29T01:20:47;3.20;;;2.53;;
7047;SDS011;3565;53.254;10.352;2022-07-29T01:23:33;4.40;;;2.57;;
7047;SDS011;3565;53.254;10.352;2022-07-29T01:26:35;3.70;;;2.67;;
7047;SDS011;3565;53.254;10.352;2022-07-29T01:29:11;3.70;;;2.80;;
7047;SDS011;3565;53.254;10.352;2022-07-29T01:31:47;4.80;;;2.70;;
7047;SDS011;3565;53.254;10.352;2022-07-29T01:34:19;3.93;;;2.77;;
7047;SDS011;3565;53.254;10.352;2022-07-29T01:36:51;3.83;;;2.77;;
7047;SDS011;3565;53.254;10.352;2022-07-29T01:39:26;4.53;;;2.80;;
7047;SDS011;3565;53.254;10.352;2022-07-29T01:41:57;4.60;;;2.70;;
7047;SDS011;3565;53.254;10.352;2022-07-29T01:44:31;3.60;;;2.50;;
7047;SDS011;3565;53.254;10.352;2022-07-29T01:47:07;4.30;;;3.07;;
7047;SDS011;3565;53.254;10.352;2022-07-29T01:49:54;4.50;;;2.80;;
7047;SDS011;3565;53.254;10.352;2022-07-29T01:52:27;4.10;;;2.60;;
7047;SDS011;3565;53.254;10.352;2022-07-29T01:54:59;4.30;;;2.70;;
7047;SDS011;3565;53.254;10.352;2022-07-29T01:57:31;4.63;;;2.90;;
7047;SDS011;3565;53.254;10.352;2022-07-29T02:02:48;9.07;;;3.07;;
7047;SDS011;3565;53.254;10.352;2022-07-29T02:05:21;4.97;;;3.53;;
7047;SDS011;3565;53.254;10.352;2022-07-29T02:07:50;5.47;;;2.80;;
7047;SDS011;3565;53.254;10.352;2022-07-29T02:10:21;4.80;;;3.07;;
7047;SDS011;3565;53.254;10.352;2022-07-29T02:12:52;3.10;;;2.80;;
7047;SDS011;3565;53.254;10.352;2022-07-29T02:15:24;4.63;;;2.93;;
7047;SDS011;3565;53.254;10.352;2022-07-29T02:17:53;3.53;;;2.93;;
7047;SDS011;3565;53.254;10.352;2022-07-29T02:20:26;7.07;;;3.23;;
7047;SDS011;3565;53.254;10.352;2022-07-29T02:22:58;7.20;;;3.10;;
7047;SDS011;3565;53.254;10.352;2022-07-29T02:25:28;3.93;;;2.93;;
7047;SDS011;3565;53.254;10.352;2022-07-29T02:27:58;4.03;;;3.07;;
7047;SDS011;3565;53.254;10.352;2022-07-29T02:30:28;6.67;;;3.10;;
7047;SDS011;3565;53.254;10.352;2022-07-29T02:32:59;5.80;;;3.17;;
7047;SDS011;3565;53.254;10.352;2022-07-29T02:35:29;5.20;;;2.83;;
7047;SDS011;3565;53.254;10.352;2022-07-29T02:37:59;4.93;;;2.90;;
7047;SDS011;3565;53.254;10.352;2022-07-29T02:40:45;3.60;;;3.00;;
7047;SDS011;3565;53.254;10.352;2022-07-29T02:43:15;5.00;;;3.20;;
7047;SDS011;3565;53.254;10.352;2022-07-29T02:45:47;5.03;;;3.10;;
7047;SDS011;3565;53.254;10.352;2022-07-29T02:48:19;5.83;;;2.87;;
7047;SDS011;3565;53.254;10.352;2022-07-29T02:50:52;4.30;;;3.10;;
7047;SDS011;3565;53.254;10.352;2022-07-29T02:53:25;7.57;;;3.50;;
7047;SDS011;3565;53.254;10.352;2022-07-29T02:55:58;4.77;;;3.13;;
7047;SDS011;3565;53.254;10.352;2022-07-29T02:58:30;5.00;;;3.20;;
7047;SDS011;3565;53.254;10.352;2022-07-29T03:01:02;4.87;;;3.07;;
7047;SDS011;3565;53.254;10.352;2022-07-29T03:03:34;5.27;;;2.93;;
7047;SDS011;3565;53.254;10.352;2022-07-29T03:06:05;3.47;;;2.80;;
7047;SDS011;3565;53.254;10.352;2022-07-29T03:08:36;4.53;;;3.10;;
7047;SDS011;3565;53.254;10.352;2022-07-29T03:11:05;4.40;;;3.00;;
7047;SDS011;3565;53.254;10.352;2022-07-29T03:13:35;6.67;;;2.93;;
7047;SDS011;3565;53.254;10.352;2022-07-29T03:16:05;4.23;;;3.30;;
7047;SDS011;3565;53.254;10.352;2022-07-29T03:18:35;4.00;;;3.10;;
7047;SDS011;3565;53.254;10.352;2022-07-29T03:21:06;6.13;;;3.50;;
7047;SDS011;3565;53.254;10.352;2022-07-29T03:23:35;5.87;;;3.00;;
7047;SDS011;3565;53.254;10.352;2022-07-29T03:26:06;7.20;;;2.90;;
7047;SDS011;3565;53.254;10.352;2022-07-29T03:28:35;4.33;;;2.90;;
7047;SDS011;3565;53.254;10.352;2022-07-29T03:31:05;4.30;;;3.27;;
7047;SDS011;3565;53.254;10.352;2022-07-29T03:33:35;7.20;;;3.50;;
7047;SDS011;3565;53.254;10.352;2022-07-29T03:36:05;5.17;;;3.30;;
7047;SDS011;3565;53.254;10.352;2022-07-29T03:38:34;5.60;;;3.40;;
7047;SDS011;3565;53.254;10.352;2022-07-29T03:41:06;6.33;;;3.40;;
7047;SDS011;3565;53.254;10.352;2022-07-29T03:43:38;4.67;;;3.03;;
7047;SDS011;3565;53.254;10.352;2022-07-29T03:46:08;5.37;;;3.03;;
7047;SDS011;3565;53.254;10.352;2022-07-29T03:48:54;4.93;;;2.67;;
7047;SDS011;3565;53.254;10.352;2022-07-29T03:51:25;6.07;;;3.30;;
7047;SDS011;3565;53.254;10.352;2022-07-29T03:53:56;6.37;;;3.33;;
7047;SDS011;3565;53.254;10.352;2022-07-29T03:56:26;4.27;;;3.27;;
7047;SDS011;3565;53.254;10.352;2022-07-29T03:58:58;3.60;;;2.67;;
7047;SDS011;3565;53.254;10.352;2022-07-29T04:01:29;5.97;;;3.40;;
7047;SDS011;3565;53.254;10.352;2022-07-29T04:04:00;4.53;;;2.80;;
7047;SDS011;3565;53.254;10.352;2022-07-29T04:06:37;6.03;;;3.50;;
7047;SDS011;3565;53.254;10.352;2022-07-29T04:09:07;5.90;;;3.20;;
7047;SDS011;3565;53.254;10.352;2022-07-29T04:11:37;4.53;;;3.10;;
7047;SDS011;3565;53.254;10.352;2022-07-29T04:14:08;4.17;;;2.87;;
7047;SDS011;3565;53.254;10.352;2022-07-29T04:16:38;3.60;;;2.80;;
7047;SDS011;3565;53.254;10.352;2022-07-29T04:19:07;5.13;;;3.23;;
7047;SDS011;3565;53.254;10.352;2022-07-29T04:21:37;5.80;;;3.23;;
7047;SDS011;3565;53.254;10.352;2022-07-29T04:26:57;5.03;;;3.23;;
7047;SDS011;3565;53.254;10.352;2022-07-29T04:29:26;6.30;;;3.20;;
7047;SDS011;3565;53.254;10.352;2022-07-29T04:31:56;5.87;;;3.00;;
7047;SDS011;3565;53.254;10.352;2022-07-29T04:34:24;4.03;;;2.97;;
7047;SDS011;3565;53.254;10.352;2022-07-29T04:36:53;5.17;;;3.10;;
7047;SDS011;3565;53.254;10.352;2022-07-29T04:39:23;5.90;;;3.00;;
7047;SDS011;3565;53.254;10.352;2022-07-29T04:41:51;4.97;;;2.90;;
7047;SDS011;3565;53.254;10.352;2022-07-29T04:44:19;3.60;;;2.93;;
7047;SDS011;3565;53.254;10.352;2022-07-29T04:46:49;6.90;;;3.20;;
7047;SDS011;3565;53.254;10.352;2022-07-29T04:49:18;4.83;;;3.40;;
7047;SDS011;3565;53.254;10.352;2022-07-29T04:54:28;5.80;;;3.03;;
7047;SDS011;3565;53.254;10.352;2022-07-29T04:56:58;6.00;;;3.33;;
7047;SDS011;3565;53.254;10.352;2022-07-29T04:59:26;4.90;;;3.07;;
7047;SDS011;3565;53.254;10.352;2022-07-29T05:01:57;4.33;;;2.90;;
7047;SDS011;3565;53.254;10.352;2022-07-29T05:04:26;3.70;;;2.50;;
7047;SDS011;3565;53.254;10.352;2022-07-29T05:06:56;4.47;;;3.07;;
7047;SDS011;3565;53.254;10.352;2022-07-29T05:09:26;6.87;;;3.10;;
7047;SDS011;3565;53.254;10.352;2022-07-29T05:11:55;7.43;;;3.10;;
7047;SDS011;3565;53.254;10.352;2022-07-29T05:14:25;3.97;;;2.67;;
7047;SDS011;3565;53.254;10.352;2022-07-29T05:16:54;5.40;;;3.13;;
7047;SDS011;3565;53.254;10.352;2022-07-29T05:19:24;5.07;;;2.83;;
7047;SDS011;3565;53.254;10.352;2022-07-29T05:21:53;9.40;;;3.03;;
7047;SDS011;3565;53.254;10.352;2022-07-29T05:24:24;6.77;;;2.80;;
7047;SDS011;3565;53.254;10.352;2022-07-29T05:26:54;5.60;;;3.17;;
7047;SDS011;3565;53.254;10.352;2022-07-29T05:29:23;4.17;;;2.80;;
7047;SDS011;3565;53.254;10.352;2022-07-29T05:31:53;5.03;;;2.90;;
7047;SDS011;3565;53.254;10.352;2022-07-29T05:34:22;6.00;;;2.70;;
7047;SDS011;3565;53.254;10.352;2022-07-29T05:36:54;6.50;;;3.03;;
7047;SDS011;3565;53.254;10.352;2022-07-29T05:39:23;7.33;;;2.97;;
7047;SDS011;3565;53.254;10.352;2022-07-29T05:41:52;6.60;;;2.90;;
7047;SDS011;3565;53.254;10.352;2022-07-29T05:44:22;3.60;;;2.90;;
7047;SDS011;3565;53.254;10.352;2022-07-29T05:46:51;4.33;;;2.67;;
7047;SDS011;3565;53.254;10.352;2022-07-29T05:49:45;5.37;;;2.97;;
7047;SDS011;3565;53.254;10.352;2022-07-29T05:52:29;6.03;;;3.20;;
7047;SDS011;3565;53.254;10.352;2022-07-29T05:54:57;5.17;;;2.93;;
7047;SDS011;3565;53.254;10.352;2022-07-29T05:57:28;6.93;;;3.37;;
7047;SDS011;3565;53.254;10.352;2022-07-29T05:59:58;5.40;;;2.70;;
7047;SDS011;3565;53.254;10.352;2022-07-29T06:02:27;5.23;;;2.93;;
7047;SDS011;3565;53.254;10.352;2022-07-29T06:05:00;5.37;;;3.00;;
7047;SDS011;3565;53.254;10.352;2022-07-29T06:07:31;5.43;;;3.03;;
7047;SDS011;3565;53.254;10.352;2022-07-29T06:10:00;3.17;;;2.47;;
7047;SDS011;3565;53.254;10.352;2022-07-29T06:12:31;4.27;;;2.80;;
7047;SDS011;3565;53.254;10.352;2022-07-29T06:15:00;3.90;;;2.70;;
7047;SDS011;3565;53.254;10.352;2022-07-29T06:17:28;4.27;;;2.57;;
7047;SDS011;3565;53.254;10.352;2022-07-29T06:20:13;5.23;;;2.83;;
7047;SDS011;3565;53.254;10.352;2022-07-29T06:22:44;4.80;;;2.87;;
7047;SDS011;3565;53.254;10.352;2022-07-29T06:25:15;8.70;;;3.10;;
7047;SDS011;3565;53.254;10.352;2022-07-29T06:27:44;5.93;;;3.03;;
7047;SDS011;3565;53.254;10.352;2022-07-29T06:30:13;7.40;;;2.77;;
7047;SDS011;3565;53.254;10.352;2022-07-29T06:32:43;7.70;;;2.70;;
7047;SDS011;3565;53.254;10.352;2022-07-29T06:35:13;5.90;;;2.67;;
7047;SDS011;3565;53.254;10.352;2022-07-29T06:37:43;7.37;;;2.90;;
7047;SDS011;3565;53.254;10.352;2022-07-29T06:40:13;6.40;;;2.37;;
7047;SDS011;3565;53.254;10.352;2022-07-29T06:43:00;5.33;;;2.43;;
7047;SDS011;3565;53.254;10.352;2022-07-29T06:45:34;5.87;;;2.97;;
7047;SDS011;3565;53.254;10.352;2022-07-29T06:48:05;5.20;;;3.10;;
7047;SDS011;3565;53.254;10.352;2022-07-29T06:50:34;4.00;;;2.43;;
7047;SDS011;3565;53.254;10.352;2022-07-29T06:53:03;3.93;;;2.30;;
7047;SDS011;3565;53.254;10.352;2022-07-29T06:55:36;6.63;;;3.03;;
7047;SDS011;3565;53.254;10.352;2022-07-29T07:09:24;2.77;;;2.50;;
7047;SDS011;3565;53.254;10.352;2022-07-29T07:11:54;3.67;;;2.40;;
7047;SDS011;3565;53.254;10.352;2022-07-29T07:14:25;4.27;;;2.57;;
7047;SDS011;3565;53.254;10.352;2022-07-29T07:16:54;5.63;;;2.63;;
7047;SDS011;3565;53.254;10.352;2022-07-29T07:19:26;7.37;;;2.80;;
7047;SDS011;3565;53.254;10.352;2022-07-29T07:21:56;3.87;;;2.80;;
7047;SDS011;3565;53.254;10.352;2022-07-29T07:24:26;4.23;;;2.60;;
7047;SDS011;3565;53.254;10.352;2022-07-29T07:26:56;3.10;;;2.67;;
7047;SDS011;3565;53.254;10.352;2022-07-29T07:29:25;5.97;;;2.50;;
7047;SDS011;3565;53.254;10.352;2022-07-29T07:31:55;4.70;;;2.37;;
7047;SDS011;3565;53.254;10.352;2022-07-29T07:34:26;6.73;;;2.57;;
7047;SDS011;3565;53.254;10.352;2022-07-29T07:36:57;4.03;;;2.63;;
7047;SDS011;3565;53.254;10.352;2022-07-29T07:39:27;4.40;;;2.23;;
7047;SDS011;3565;53.254;10.352;2022-07-29T07:41:57;3.80;;;2.40;;
7047;SDS011;3565;53.254;10.352;2022-07-29T07:44:26;3.80;;;2.20;;
7047;SDS011;3565;53.254;10.352;2022-07-29T07:46:55;3.03;;;2.50;;
7047;SDS011;3565;53.254;10.352;2022-07-29T07:49:25;4.37;;;2.37;;
7047;SDS011;3565;53.254;10.352;2022-07-29T07:51:54;5.27;;;2.47;;
7047;SDS011;3565;53.254;10.352;2022-07-29T07:54:23;4.13;;;2.40;;
7047;SDS011;3565;53.254;10.352;2022-07-29T07:56:52;4.57;;;2.43;;
7047;SDS011;3565;53.254;10.352;2022-07-29T07:59:22;5.57;;;2.30;;
7047;SDS011;3565;53.254;10.352;2022-07-29T08:01:51;5.60;;;2.43;;
7047;SDS011;3565;53.254;10.352;2022-07-29T08:04:21;3.87;;;2.30;;
7047;SDS011;3565;53.254;10.352;2022-07-29T08:06:51;7.17;;;2.60;;
7047;SDS011;3565;53.254;10.352;2022-07-29T08:09:34;4.80;;;2.10;;
7047;SDS011;3565;53.254;10.352;2022-07-29T08:12:11;2.40;;;2.10;;
7047;SDS011;3565;53.254;10.352;2022-07-29T08:14:59;3.00;;;2.00;;
7047;SDS011;3565;53.254;10.352;2022-07-29T08:17:35;3.43;;;2.53;;
7047;SDS011;3565;53.254;10.352;2022-07-29T08:20:08;3.90;;;2.10;;
7047;SDS011;3565;53.254;10.352;2022-07-29T08:22:39;3.57;;;2.33;;
7047;SDS011;3565;53.254;10.352;2022-07-29T08:25:09;3.10;;;2.10;;
7047;SDS011;3565;53.254;10.352;2022-07-29T08:27:38;3.37;;;2.30;;
7047;SDS011;3565;53.254;10.352;2022-07-29T08:30:09;4.27;;;2.40;;
7047;SDS011;3565;53.254;10.352;2022-07-29T08:32:39;4.23;;;2.20;;
7047;SDS011;3565;53.254;10.352;2022-07-29T08:35:09;5.50;;;2.10;;
7047;SDS011;3565;53.254;10.352;2022-07-29T08:37:38;4.53;;;2.27;;
7047;SDS011;3565;53.254;10.352;2022-07-29T08:40:09;5.30;;;2.20;;
7047;SDS011;3565;53.254;10.352;2022-07-29T08:42:40;4.07;;;2.20;;
7047;SDS011;3565;53.254;10.352;2022-07-29T08:45:11;6.67;;;2.40;;
7047;SDS011;3565;53.254;10.352;2022-07-29T08:47:41;3.23;;;2.00;;
7047;SDS011;3565;53.254;10.352;2022-07-29T08:50:14;5.42;;;2.12;;
7047;SDS011;3565;53.254;10.352;2022-07-29T08:52:43;3.60;;;1.75;;
7047;SDS011;3565;53.254;10.352;2022-07-29T08:55:14;4.03;;;2.15;;
7047;SDS011;3565;53.254;10.352;2022-07-29T08:57:44;2.80;;;2.20;;
7047;SDS011;3565;53.254;10.352;2022-07-29T09:00:15;3.35;;;2.05;;
7047;SDS011;3565;53.254;10.352;2022-07-29T09:02:45;4.72;;;2.10;;
7047;SDS011;3565;53.254;10.352;2022-07-29T09:05:17;2.77;;;1.82;;
7047;SDS011;3565;53.254;10.352;2022-07-29T09:07:48;2.98;;;1.75;;
7047;SDS011;3565;53.254;10.352;2022-07-29T09:10:18;4.62;;;1.80;;
7047;SDS011;3565;53.254;10.352;2022-07-29T09:12:51;2.85;;;1.95;;
7047;SDS011;3565;53.254;10.352;2022-07-29T09:15:22;3.30;;;1.80;;
7047;SDS011;3565;53.254;10.352;2022-07-29T09:17:54;4.03;;;1.90;;
7047;SDS011;3565;53.254;10.352;2022-07-29T09:20:24;6.67;;;2.00;;
7047;SDS011;3565;53.254;10.352;2022-07-29T09:23:07;4.22;;;1.80;;
7047;SDS011;3565;53.254;10.352;2022-07-29T09:25:35;3.67;;;2.00;;
7047;SDS011;3565;53.254;10.352;2022-07-29T09:28:08;4.33;;;2.30;;
7047;SDS011;3565;53.254;10.352;2022-07-29T09:30:43;3.98;;;2.08;;
7047;SDS011;3565;53.254;10.352;2022-07-29T09:33:36;4.45;;;2.17;;
7047;SDS011;3565;53.254;10.352;2022-07-29T09:36:08;4.83;;;2.00;;
7047;SDS011;3565;53.254;10.352;2022-07-29T09:38:38;4.45;;;2.00;;
7047;SDS011;3565;53.254;10.352;2022-07-29T09:41:08;3.50;;;1.82;;
7047;SDS011;3565;53.254;10.352;2022-07-29T09:43:37;3.50;;;1.80;;
7047;SDS011;3565;53.254;10.352;2022-07-29T09:49:09;3.27;;;1.82;;
7047;SDS011;3565;53.254;10.352;2022-07-29T09:51:59;3.17;;;2.05;;
7047;SDS011;3565;53.254;10.352;2022-07-29T09:54:31;5.55;;;1.92;;
7047;SDS011;3565;53.254;10.352;2022-07-29T09:57:04;4.17;;;1.90;;
7047;SDS011;3565;53.254;10.352;2022-07-29T09:59:37;3.95;;;2.27;;
7047;SDS011;3565;53.254;10.352;2022-07-29T10:02:11;3.85;;;1.80;;
7047;SDS011;3565;53.254;10.352;2022-07-29T10:04:41;5.12;;;2.10;;
7047;SDS011;3565;53.254;10.352;2022-07-29T10:07:11;3.22;;;1.60;;
7047;SDS011;3565;53.254;10.352;2022-07-29T10:09:39;8.08;;;2.08;;
7047;SDS011;3565;53.254;10.352;2022-07-29T10:12:10;4.22;;;2.00;;
7047;SDS011;3565;53.254;10.352;2022-07-29T10:14:41;5.67;;;2.02;;
7047;SDS011;3565;53.254;10.352;2022-07-29T10:17:09;4.08;;;2.17;;
7047;SDS011;3565;53.254;10.352;2022-07-29T10:19:41;3.77;;;1.65;;
7047;SDS011;3565;53.254;10.352;2022-07-29T10:22:09;3.87;;;2.00;;
7047;SDS011;3565;53.254;10.352;2022-07-29T10:24:39;3.70;;;1.80;;
7047;SDS011;3565;53.254;10.352;2022-07-29T10:27:08;2.83;;;1.98;;
7047;SDS011;3565;53.254;10.352;2022-07-29T10:29:38;4.63;;;2.00;;
7047;SDS011;3565;53.254;10.352;2022-07-29T10:40:45;4.15;;;1.80;;
7047;SDS011;3565;53.254;10.352;2022-07-29T10:43:38;7.47;;;1.90;;
7047;SDS011;3565;53.254;10.352;2022-07-29T10:46:10;3.47;;;1.82;;
7047;SDS011;3565;53.254;10.352;2022-07-29T10:51:56;3.92;;;1.85;;
7047;SDS011;3565;53.254;10.352;2022-07-29T10:54:49;3.15;;;1.57;;
7047;SDS011;3565;53.254;10.352;2022-07-29T10:57:24;10.85;;;1.98;;
7047;SDS011;3565;53.254;10.352;2022-07-29T11:03:00;3.87;;;1.75;;
7047;SDS011;3565;53.254;10.352;2022-07-29T11:05:32;5.72;;;2.00;;
7047;SDS011;3565;53.254;10.352;2022-07-29T11:14:08;3.08;;;1.82;;
7047;SDS011;3565;53.254;10.352;2022-07-29T11:19:29;2.90;;;1.70;;
7047;SDS011;3565;53.254;10.352;2022-07-29T11:21:59;6.92;;;2.27;;
7047;SDS011;3565;53.254;10.352;2022-07-29T11:24:28;4.55;;;1.98;;
7047;SDS011;3565;53.254;10.352;2022-07-29T11:27:10;8.83;;;2.00;;
7047;SDS011;3565;53.254;10.352;2022-07-29T11:29:53;2.72;;;1.50;;
7047;SDS011;3565;53.254;10.352;2022-07-29T11:32:35;3.43;;;1.80;;
7047;SDS011;3565;53.254;10.352;2022-07-29T11:35:14;4.67;;;2.13;;
7047;SDS011;3565;53.254;10.352;2022-07-29T11:37:46;7.13;;;1.90;;
7047;SDS011;3565;53.254;10.352;2022-07-29T11:40:17;4.43;;;1.80;;
7047;SDS011;3565;53.254;10.352;2022-07-29T11:42:48;3.63;;;1.90;;
7047;SDS011;3565;53.254;10.352;2022-07-29T11:45:21;3.90;;;1.93;;
7047;SDS011;3565;53.254;10.352;2022-07-29T11:47:57;4.53;;;1.60;;
7047;SDS011;3565;53.254;10.352;2022-07-29T11:50:29;5.57;;;2.30;;
7047;SDS011;3565;53.254;10.352;2022-07-29T11:53:00;2.77;;;1.80;;
7047;SDS011;3565;53.254;10.352;2022-07-29T11:55:30;5.53;;;1.97;;
7047;SDS011;3565;53.254;10.352;2022-07-29T11:58:02;9.27;;;2.33;;
7047;SDS011;3565;53.254;10.352;2022-07-29T12:00:31;6.03;;;2.40;;
7047;SDS011;3565;53.254;10.352;2022-07-29T12:03:02;4.43;;;2.20;;
7047;SDS011;3565;53.254;10.352;2022-07-29T12:05:34;3.98;;;1.80;;
7047;SDS011;3565;53.254;10.352;2022-07-29T12:08:06;6.70;;;2.00;;
7047;SDS011;3565;53.254;10.352;2022-07-29T12:10:37;5.00;;;2.10;;
7047;SDS011;3565;53.254;10.352;2022-07-29T12:13:07;5.50;;;1.85;;
7047;SDS011;3565;53.254;10.352;2022-07-29T12:15:36;4.30;;;1.90;;
7047;SDS011;3565;53.254;10.352;2022-07-29T12:18:16;6.85;;;2.00;;
7047;SDS011;3565;53.254;10.352;2022-07-29T12:21:02;6.70;;;1.90;;
7047;SDS011;3565;53.254;10.352;2022-07-29T12:23:31;3.62;;;1.90;;
7047;SDS011;3565;53.254;10.352;2022-07-29T12:26:04;3.12;;;1.90;;
7047;SDS011;3565;53.254;10.352;2022-07-29T12:28:36;4.00;;;1.80;;
7047;SDS011;3565;53.254;10.352;2022-07-29T12:31:08;7.72;;;2.40;;
7047;SDS011;3565;53.254;10.352;2022-07-29T12:33:41;5.83;;;1.90;;
7047;SDS011;3565;53.254;10.352;2022-07-29T12:36:14;3.80;;;1.80;;
7047;SDS011;3565;53.254;10.352;2022-07-29T12:38:46;2.10;;;1.80;;
7047;SDS011;3565;53.254;10.352;2022-07-29T12:41:16;2.70;;;1.60;;
7047;SDS011;3565;53.254;10.352;2022-07-29T12:44:02;3.58;;;1.95;;
7047;SDS011;3565;53.254;10.352;2022-07-29T12:46:33;4.30;;;2.10;;
7047;SDS011;3565;53.254;10.352;2022-07-29T12:49:04;3.62;;;1.90;;
7047;SDS011;3565;53.254;10.352;2022-07-29T12:51:36;3.42;;;1.80;;
7047;SDS011;3565;53.254;10.352;2022-07-29T12:54:09;6.12;;;1.80;;
7047;SDS011;3565;53.254;10.352;2022-07-29T12:56:40;8.25;;;1.90;;
7047;SDS011;3565;53.254;10.352;2022-07-29T12:59:15;5.22;;;1.75;;
7047;SDS011;3565;53.254;10.352;2022-07-29T13:01:45;4.00;;;1.80;;
7047;SDS011;3565;53.254;10.352;2022-07-29T13:04:25;4.70;;;1.90;;
7047;SDS011;3565;53.254;10.352;2022-07-29T13:07:01;6.50;;;2.00;;
7047;SDS011;3565;53.254;10.352;2022-07-29T13:09:41;4.95;;;1.85;;
7047;SDS011;3565;53.254;10.352;2022-07-29T13:12:15;4.60;;;1.80;;
7047;SDS011;3565;53.254;10.352;2022-07-29T13:14:57;6.60;;;1.77;;
7047;SDS011;3565;53.254;10.352;2022-07-29T13:17:27;2.92;;;1.80;;
7047;SDS011;3565;53.254;10.352;2022-07-29T13:22:50;3.72;;;1.87;;
7047;SDS011;3565;53.254;10.352;2022-07-29T13:25:27;3.22;;;2.05;;
7047;SDS011;3565;53.254;10.352;2022-07-29T13:28:00;4.80;;;2.00;;
7047;SDS011;3565;53.254;10.352;2022-07-29T13:30:32;4.03;;;2.05;;
7047;SDS011;3565;53.254;10.352;2022-07-29T13:33:02;5.05;;;2.00;;
7047;SDS011;3565;53.254;10.352;2022-07-29T13:35:32;3.25;;;2.10;;
7047;SDS011;3565;53.254;10.352;2022-07-29T13:40:47;4.90;;;2.12;;
7047;SDS011;3565;53.254;10.352;2022-07-29T13:43:17;2.75;;;1.85;;
7047;SDS011;3565;53.254;10.352;2022-07-29T13:45:46;3.60;;;1.92;;
7047;SDS011;3565;53.254;10.352;2022-07-29T13:48:15;7.17;;;2.10;;
7047;SDS011;3565;53.254;10.352;2022-07-29T13:50:45;3.60;;;2.00;;
7047;SDS011;3565;53.254;10.352;2022-07-29T13:53:14;4.03;;;2.15;;
7047;SDS011;3565;53.254;10.352;2022-07-29T13:55:44;4.65;;;2.10;;
7047;SDS011;3565;53.254;10.352;2022-07-29T13:58:13;5.25;;;2.45;;
7047;SDS011;3565;53.254;10.352;2022-07-29T14:00:43;5.75;;;2.12;;
7047;SDS011;3565;53.254;10.352;2022-07-29T14:03:33;3.33;;;2.10;;
7047;SDS011;3565;53.254;10.352;2022-07-29T14:06:05;3.77;;;1.98;;
7047;SDS011;3565;53.254;10.352;2022-07-29T14:08:35;3.30;;;1.95;;
7047;SDS011;3565;53.254;10.352;2022-07-29T14:11:06;3.50;;;2.08;;
7047;SDS011;3565;53.254;10.352;2022-07-29T14:13:35;3.87;;;2.08;;
7047;SDS011;3565;53.254;10.352;2022-07-29T14:16:06;4.45;;;1.92;;
7047;SDS011;3565;53.254;10.352;2022-07-29T14:18:36;7.78;;;2.33;;
7047;SDS011;3565;53.254;10.352;2022-07-29T14:21:25;3.95;;;1.90;;
7047;SDS011;3565;53.254;10.352;2022-07-29T14:23:56;2.58;;;2.02;;
7047;SDS011;3565;53.254;10.352;2022-07-29T14:26:25;3.98;;;2.30;;
7047;SDS011;3565;53.254;10.352;2022-07-29T14:29:09;8.08;;;2.55;;
7047;SDS011;3565;53.254;10.352;2022-07-29T14:31:41;5.72;;;2.10;;
7047;SDS011;3565;53.254;10.352;2022-07-29T14:34:23;3.75;;;2.40;;
7047;SDS011;3565;53.254;10.352;2022-07-29T14:36:54;7.85;;;2.00;;
7047;SDS011;3565;53.254;10.352;2022-07-29T14:39:23;3.50;;;2.00;;
7047;SDS011;3565;53.254;10.352;2022-07-29T14:41:54;4.30;;;2.10;;
7047;SDS011;3565;53.254;10.352;2022-07-29T14:44:23;5.37;;;2.17;;
7047;SDS011;3565;53.254;10.352;2022-07-29T14:46:55;5.05;;;2.35;;
7047;SDS011;3565;53.254;10.352;2022-07-29T14:49:25;7.12;;;2.30;;
7047;SDS011;3565;53.254;10.352;2022-07-29T14:51:55;6.62;;;2.25;;
7047;SDS011;3565;53.254;10.352;2022-07-29T14:54:24;4.47;;;2.30;;
7047;SDS011;3565;53.254;10.352;2022-07-29T14:56:56;3.72;;;2.08;;
7047;SDS011;3565;53.254;10.352;2022-07-29T14:59:26;3.40;;;2.10;;
7047;SDS011;3565;53.254;10.352;2022-07-29T15:01:55;3.35;;;2.00;;
7047;SDS011;3565;53.254;10.352;2022-07-29T15:04:25;3.30;;;1.92;;
7047;SDS011;3565;53.254;10.352;2022-07-29T15:06:54;3.15;;;1.98;;
7047;SDS011;3565;53.254;10.352;2022-07-29T15:09:25;4.70;;;2.00;;
7047;SDS011;3565;53.254;10.352;2022-07-29T15:11:55;4.50;;;2.10;;
7047;SDS011;3565;53.254;10.352;2022-07-29T15:14:24;5.62;;;2.40;;
7047;SDS011;3565;53.254;10.352;2022-07-29T15:16:55;3.62;;;2.12;;
7047;SDS011;3565;53.254;10.352;2022-07-29T15:19:25;7.00;;;2.00;;
7047;SDS011;3565;53.254;10.352;2022-07-29T15:21:56;3.33;;;2.33;;
7047;SDS011;3565;53.254;10.352;2022-07-29T15:24:26;4.42;;;2.20;;
7047;SDS011;3565;53.254;10.352;2022-07-29T15:26:56;3.55;;;2.00;;
7047;SDS011;3565;53.254;10.352;2022-07-29T15:32:19;5.47;;;2.40;;
7047;SDS011;3565;53.254;10.352;2022-07-29T15:34:48;3.27;;;2.10;;
7047;SDS011;3565;53.254;10.352;2022-07-29T15:37:18;5.55;;;2.15;;
7047;SDS011;3565;53.254;10.352;2022-07-29T15:39:47;4.42;;;2.17;;
7047;SDS011;3565;53.254;10.352;2022-07-29T15:45:10;2.67;;;1.92;;
7047;SDS011;3565;53.254;10.352;2022-07-29T15:47:40;6.00;;;1.90;;
7047;SDS011;3565;53.254;10.352;2022-07-29T15:50:10;4.40;;;2.22;;
7047;SDS011;3565;53.254;10.352;2022-07-29T15:52:43;4.72;;;2.52;;
7047;SDS011;3565;53.254;10.352;2022-07-29T15:55:13;5.25;;;2.30;;
7047;SDS011;3565;53.254;10.352;2022-07-29T15:57:41;5.30;;;2.33;;
7047;SDS011;3565;53.254;10.352;2022-07-29T16:00:12;5.58;;;2.12;;
7047;SDS011;3565;53.254;10.352;2022-07-29T16:02:40;8.50;;;2.37;;
7047;SDS011;3565;53.254;10.352;2022-07-29T16:05:08;3.08;;;1.90;;
7047;SDS011;3565;53.254;10.352;2022-07-29T16:07:38;4.97;;;2.22;;
7047;SDS011;3565;53.254;10.352;2022-07-29T16:10:08;5.33;;;2.20;;
7047;SDS011;3565;53.254;10.352;2022-07-29T16:12:36;8.23;;;2.60;;
7047;SDS011;3565;53.254;10.352;2022-07-29T16:15:04;5.55;;;2.47;;
7047;SDS011;3565;53.254;10.352;2022-07-29T16:17:36;4.03;;;2.40;;
7047;SDS011;3565;53.254;10.352;2022-07-29T16:20:07;4.50;;;2.20;;
7047;SDS011;3565;53.254;10.352;2022-07-29T16:22:36;5.10;;;2.47;;
7047;SDS011;3565;53.254;10.352;2022-07-29T16:25:08;5.33;;;2.50;;
7047;SDS011;3565;53.254;10.352;2022-07-29T16:27:37;5.33;;;2.77;;
7047;SDS011;3565;53.254;10.352;2022-07-29T16:30:06;3.60;;;2.50;;